WXM80 ListenWXM80 Stop

You find our weather info also at:

UK Metoffice

WeatherCloud

Weather Underground

Northeastern Weather Network

AWEKAS

Citizen Weather Observer Program (CWOP)

HAMweather, WeatherForYou, PWS Weather


Weather Underground History page Text

Daily Summary for September 16, 2017 Units:  Both    English   Metric
« Previous Day
Next Day »
Daily Weekly Monthly Yearly Custom
  High: Low: Average:
Temperature: 78.9 °F /  26.1 °C 66.7 °F /  19.3 °C 72.1 °F /  22.3 °C
Dew Point: 71.9 °F /  22.2 °C 64.6 °F /  18.1 °C 68.9 °F /  20.5 °C
Humidity: 96 % 78 % 90 %
Wind Speed: 3.9 mph /  6.3 km/h - 0.3 mph /  0.5 km/h
Wind Gust: 7.0 mph /  11.3 km/h - -
Wind:- - ENE
Pressure: 30.11 in /  1019.5 hPa 30.04 in /  1017.2 hPa -
Precipitation: 0.00 in /  0 mm    
Historical Graphs
 
 
Tabular Data for September 16, 2017
Time Temperature Dew Point Pressure Wind Wind Speed Wind Gust Humidity Rainfall Rate (Hourly)
00:00 71.0 °F /  21.7 °C 68.6 °F /  20.3 °C 30.04 in /  1017.2 hPa SE 0.2 mph /  0.3 km/h 1.2 mph /  1.9 km/h 92 % 0.00 in /  0 mm
00:05 71.0 °F /  21.7 °C 68.6 °F /  20.3 °C 30.04 in /  1017.2 hPa SE 0.2 mph /  0.3 km/h 2.3 mph /  3.7 km/h 92 % 0.00 in /  0 mm
00:10 71.0 °F /  21.7 °C 68.6 °F /  20.3 °C 30.04 in /  1017.2 hPa Calm     92 % 0.00 in /  0 mm
00:15 71.0 °F /  21.7 °C 68.6 °F /  20.3 °C 30.04 in /  1017.2 hPa Calm     92 % 0.00 in /  0 mm
00:20 71.0 °F /  21.7 °C 68.6 °F /  20.3 °C 30.05 in /  1017.5 hPa Calm     92 % 0.00 in /  0 mm
00:25 71.0 °F /  21.7 °C 68.6 °F /  20.3 °C 30.05 in /  1017.5 hPa Calm     92 % 0.00 in /  0 mm
00:30 70.9 °F /  21.6 °C 68.5 °F /  20.3 °C 30.05 in /  1017.5 hPa Calm   1.0 mph /  1.6 km/h 92 % 0.00 in /  0 mm
00:35 71.0 °F /  21.7 °C 68.9 °F /  20.5 °C 30.05 in /  1017.5 hPa Calm     93 % 0.00 in /  0 mm
00:40 70.9 °F /  21.6 °C 68.5 °F /  20.3 °C 30.05 in /  1017.5 hPa Calm     92 % 0.00 in /  0 mm
00:45 70.9 °F /  21.6 °C 68.8 °F /  20.4 °C 30.05 in /  1017.5 hPa Calm     93 % 0.00 in /  0 mm
00:50 71.0 °F /  21.7 °C 68.9 °F /  20.5 °C 30.05 in /  1017.5 hPa Calm     93 % 0.00 in /  0 mm
00:56 70.9 °F /  21.6 °C 68.8 °F /  20.4 °C 30.05 in /  1017.5 hPa Calm     93 % 0.00 in /  0 mm
01:01 70.9 °F /  21.6 °C 68.8 °F /  20.4 °C 30.05 in /  1017.5 hPa Calm     93 % 0.00 in /  0 mm
01:06 70.9 °F /  21.6 °C 68.5 °F /  20.3 °C 30.05 in /  1017.5 hPa Calm     92 % 0.00 in /  0 mm
01:11 70.8 °F /  21.6 °C 68.4 °F /  20.2 °C 30.05 in /  1017.5 hPa Calm     92 % 0.00 in /  0 mm
01:16 70.8 °F /  21.6 °C 68.4 °F /  20.2 °C 30.05 in /  1017.5 hPa Calm     92 % 0.00 in /  0 mm
01:21 70.7 °F /  21.5 °C 68.3 °F /  20.2 °C 30.05 in /  1017.5 hPa Calm     92 % 0.00 in /  0 mm
01:26 70.7 °F /  21.5 °C 68.3 °F /  20.2 °C 30.05 in /  1017.5 hPa Calm     92 % 0.00 in /  0 mm
01:31 70.6 °F /  21.4 °C 68.2 °F /  20.1 °C 30.05 in /  1017.5 hPa Calm     92 % 0.00 in /  0 mm
01:36 70.5 °F /  21.4 °C 68.1 °F /  20.1 °C 30.05 in /  1017.5 hPa Calm     92 % 0.00 in /  0 mm
01:41 70.5 °F /  21.4 °C 68.1 °F /  20.1 °C 30.05 in /  1017.5 hPa Calm     92 % 0.00 in /  0 mm
01:46 70.4 °F /  21.3 °C 68.0 °F /  20 °C 30.04 in /  1017.2 hPa Calm     92 % 0.00 in /  0 mm
01:51 70.4 °F /  21.3 °C 68.0 °F /  20 °C 30.04 in /  1017.2 hPa Calm     92 % 0.00 in /  0 mm
01:56 70.3 °F /  21.3 °C 67.9 °F /  19.9 °C 30.05 in /  1017.5 hPa Calm     92 % 0.00 in /  0 mm
02:01 70.2 °F /  21.2 °C 67.8 °F /  19.9 °C 30.04 in /  1017.2 hPa Calm     92 % 0.00 in /  0 mm
02:06 70.1 °F /  21.2 °C 67.7 °F /  19.8 °C 30.04 in /  1017.2 hPa Calm     92 % 0.00 in /  0 mm
02:12 70.1 °F /  21.2 °C 67.7 °F /  19.8 °C 30.04 in /  1017.2 hPa Calm     92 % 0.00 in /  0 mm
02:17 70.1 °F /  21.2 °C 67.7 °F /  19.8 °C 30.04 in /  1017.2 hPa Calm     92 % 0.00 in /  0 mm
02:22 70.0 °F /  21.1 °C 67.6 °F /  19.8 °C 30.04 in /  1017.2 hPa Calm     92 % 0.00 in /  0 mm
02:27 70.0 °F /  21.1 °C 67.9 °F /  19.9 °C 30.04 in /  1017.2 hPa Calm     93 % 0.00 in /  0 mm
02:32 69.9 °F /  21.1 °C 67.8 °F /  19.9 °C 30.04 in /  1017.2 hPa Calm     93 % 0.00 in /  0 mm
02:37 69.9 °F /  21.1 °C 67.8 °F /  19.9 °C 30.05 in /  1017.5 hPa Calm     93 % 0.00 in /  0 mm
02:42 69.9 °F /  21.1 °C 67.8 °F /  19.9 °C 30.04 in /  1017.2 hPa Calm     93 % 0.00 in /  0 mm
02:47 69.8 °F /  21 °C 67.7 °F /  19.8 °C 30.05 in /  1017.5 hPa Calm     93 % 0.00 in /  0 mm
02:52 69.8 °F /  21 °C 67.7 °F /  19.8 °C 30.04 in /  1017.2 hPa Calm     93 % 0.00 in /  0 mm
02:57 69.8 °F /  21 °C 67.7 °F /  19.8 °C 30.04 in /  1017.2 hPa Calm     93 % 0.00 in /  0 mm
03:02 69.7 °F /  20.9 °C 67.6 °F /  19.8 °C 30.04 in /  1017.2 hPa Calm     93 % 0.00 in /  0 mm
03:07 69.7 °F /  20.9 °C 67.6 °F /  19.8 °C 30.04 in /  1017.2 hPa Calm     93 % 0.00 in /  0 mm
03:12 69.7 °F /  20.9 °C 67.6 °F /  19.8 °C 30.04 in /  1017.2 hPa Calm     93 % 0.00 in /  0 mm
03:17 69.7 °F /  20.9 °C 67.6 °F /  19.8 °C 30.04 in /  1017.2 hPa Calm     93 % 0.00 in /  0 mm
03:23 69.6 °F /  20.9 °C 67.5 °F /  19.7 °C 30.04 in /  1017.2 hPa Calm     93 % 0.00 in /  0 mm
03:28 69.7 °F /  20.9 °C 67.6 °F /  19.8 °C 30.04 in /  1017.2 hPa Calm     93 % 0.00 in /  0 mm
03:33 69.7 °F /  20.9 °C 67.6 °F /  19.8 °C 30.04 in /  1017.2 hPa Calm     93 % 0.00 in /  0 mm
03:38 69.7 °F /  20.9 °C 67.9 °F /  19.9 °C 30.04 in /  1017.2 hPa Calm     94 % 0.00 in /  0 mm
03:43 69.7 °F /  20.9 °C 67.9 °F /  19.9 °C 30.04 in /  1017.2 hPa Calm     94 % 0.00 in /  0 mm
03:48 69.7 °F /  20.9 °C 67.9 °F /  19.9 °C 30.04 in /  1017.2 hPa Calm     94 % 0.00 in /  0 mm
03:53 69.7 °F /  20.9 °C 67.9 °F /  19.9 °C 30.05 in /  1017.5 hPa Calm     94 % 0.00 in /  0 mm
03:58 69.7 °F /  20.9 °C 67.9 °F /  19.9 °C 30.05 in /  1017.5 hPa Calm     94 % 0.00 in /  0 mm
04:03 69.7 °F /  20.9 °C 67.9 °F /  19.9 °C 30.05 in /  1017.5 hPa Calm     94 % 0.00 in /  0 mm
04:08 69.7 °F /  20.9 °C 67.9 °F /  19.9 °C 30.05 in /  1017.5 hPa Calm     94 % 0.00 in /  0 mm
04:13 69.7 °F /  20.9 °C 67.9 °F /  19.9 °C 30.05 in /  1017.5 hPa Calm     94 % 0.00 in /  0 mm
04:18 69.7 °F /  20.9 °C 67.9 °F /  19.9 °C 30.04 in /  1017.2 hPa Calm     94 % 0.00 in /  0 mm
04:24 69.7 °F /  20.9 °C 67.9 °F /  19.9 °C 30.04 in /  1017.2 hPa Calm     94 % 0.00 in /  0 mm
04:29 69.9 °F /  21.1 °C 68.4 °F /  20.2 °C 30.05 in /  1017.5 hPa Calm     95 % 0.00 in /  0 mm
04:34 69.9 °F /  21.1 °C 68.4 °F /  20.2 °C 30.04 in /  1017.2 hPa Calm     95 % 0.00 in /  0 mm
04:39 70.0 °F /  21.1 °C 68.5 °F /  20.3 °C 30.04 in /  1017.2 hPa Calm     95 % 0.00 in /  0 mm
04:44 70.0 °F /  21.1 °C 68.5 °F /  20.3 °C 30.04 in /  1017.2 hPa Calm     95 % 0.00 in /  0 mm
04:49 70.1 °F /  21.2 °C 68.6 °F /  20.3 °C 30.04 in /  1017.2 hPa Calm     95 % 0.00 in /  0 mm
04:55 70.2 °F /  21.2 °C 68.7 °F /  20.4 °C 30.05 in /  1017.5 hPa Calm     95 % 0.00 in /  0 mm
05:00 70.2 °F /  21.2 °C 69.0 °F /  20.6 °C 30.05 in /  1017.5 hPa Calm     96 % 0.00 in /  0 mm
05:05 70.3 °F /  21.3 °C 69.1 °F /  20.6 °C 30.05 in /  1017.5 hPa Calm     96 % 0.00 in /  0 mm
05:10 70.3 °F /  21.3 °C 69.1 °F /  20.6 °C 30.05 in /  1017.5 hPa Calm     96 % 0.00 in /  0 mm
05:15 70.3 °F /  21.3 °C 69.1 °F /  20.6 °C 30.05 in /  1017.5 hPa Calm     96 % 0.00 in /  0 mm
05:20 70.3 °F /  21.3 °C 69.1 °F /  20.6 °C 30.05 in /  1017.5 hPa Calm     96 % 0.00 in /  0 mm
05:25 70.2 °F /  21.2 °C 69.0 °F /  20.6 °C 30.05 in /  1017.5 hPa Calm     96 % 0.00 in /  0 mm
05:30 70.2 °F /  21.2 °C 69.0 °F /  20.6 °C 30.05 in /  1017.5 hPa Calm     96 % 0.00 in /  0 mm
05:35 70.2 °F /  21.2 °C 69.0 °F /  20.6 °C 30.05 in /  1017.5 hPa Calm     96 % 0.00 in /  0 mm
05:40 70.2 °F /  21.2 °C 69.0 °F /  20.6 °C 30.05 in /  1017.5 hPa Calm     96 % 0.00 in /  0 mm
05:45 70.2 °F /  21.2 °C 69.0 °F /  20.6 °C 30.06 in /  1017.8 hPa Calm     96 % 0.00 in /  0 mm
05:50 70.2 °F /  21.2 °C 69.0 °F /  20.6 °C 30.06 in /  1017.8 hPa Calm     96 % 0.00 in /  0 mm
05:56 70.2 °F /  21.2 °C 69.0 °F /  20.6 °C 30.06 in /  1017.8 hPa Calm     96 % 0.00 in /  0 mm
06:01 70.2 °F /  21.2 °C 69.0 °F /  20.6 °C 30.06 in /  1017.8 hPa Calm     96 % 0.00 in /  0 mm
06:06 70.2 °F /  21.2 °C 69.0 °F /  20.6 °C 30.07 in /  1018.2 hPa Calm     96 % 0.00 in /  0 mm
06:11 70.2 °F /  21.2 °C 69.0 °F /  20.6 °C 30.07 in /  1018.2 hPa Calm     96 % 0.00 in /  0 mm
06:16 70.2 °F /  21.2 °C 69.0 °F /  20.6 °C 30.07 in /  1018.2 hPa Calm     96 % 0.00 in /  0 mm
06:21 70.2 °F /  21.2 °C 69.0 °F /  20.6 °C 30.07 in /  1018.2 hPa Calm     96 % 0.00 in /  0 mm
06:26 70.2 °F /  21.2 °C 69.0 °F /  20.6 °C 30.07 in /  1018.2 hPa Calm     96 % 0.00 in /  0 mm
06:31 70.2 °F /  21.2 °C 69.0 °F /  20.6 °C 30.08 in /  1018.5 hPa Calm     96 % 0.00 in /  0 mm
06:36 70.2 °F /  21.2 °C 69.0 °F /  20.6 °C 30.08 in /  1018.5 hPa Calm     96 % 0.00 in /  0 mm
06:41 70.2 °F /  21.2 °C 69.0 °F /  20.6 °C 30.08 in /  1018.5 hPa SE 0.2 mph /  0.3 km/h 1.0 mph /  1.6 km/h 96 % 0.00 in /  0 mm
06:46 70.2 °F /  21.2 °C 69.0 °F /  20.6 °C 30.08 in /  1018.5 hPa Calm     96 % 0.00 in /  0 mm
06:51 70.2 °F /  21.2 °C 69.0 °F /  20.6 °C 30.08 in /  1018.5 hPa Calm   1.2 mph /  1.9 km/h 96 % 0.00 in /  0 mm
06:52 70.2 °F /  21.2 °C 69.0 °F /  20.6 °C 30.08 in /  1018.5 hPa Calm   1.2 mph /  1.9 km/h 96 % 0.00 in /  0 mm
06:57 70.2 °F /  21.2 °C 69.0 °F /  20.6 °C 30.08 in /  1018.5 hPa Calm     96 % 0.00 in /  0 mm
07:02 70.2 °F /  21.2 °C 69.0 °F /  20.6 °C 30.08 in /  1018.5 hPa Calm     96 % 0.00 in /  0 mm
07:07 70.2 °F /  21.2 °C 69.0 °F /  20.6 °C 30.08 in /  1018.5 hPa SE 0.5 mph /  0.8 km/h 1.2 mph /  1.9 km/h 96 % 0.00 in /  0 mm
07:12 70.1 °F /  21.2 °C 68.9 °F /  20.5 °C 30.08 in /  1018.5 hPa Calm     96 % 0.00 in /  0 mm
07:17 70.1 °F /  21.2 °C 68.9 °F /  20.5 °C 30.08 in /  1018.5 hPa Calm     96 % 0.00 in /  0 mm
07:22 70.1 °F /  21.2 °C 68.9 °F /  20.5 °C 30.08 in /  1018.5 hPa Calm     96 % 0.00 in /  0 mm
07:27 70.2 °F /  21.2 °C 69.0 °F /  20.6 °C 30.08 in /  1018.5 hPa Calm     96 % 0.00 in /  0 mm
07:32 70.1 °F /  21.2 °C 68.9 °F /  20.5 °C 30.09 in /  1018.8 hPa Calm     96 % 0.00 in /  0 mm
07:37 70.2 °F /  21.2 °C 69.0 °F /  20.6 °C 30.09 in /  1018.8 hPa Calm     96 % 0.00 in /  0 mm
07:42 70.2 °F /  21.2 °C 69.0 °F /  20.6 °C 30.09 in /  1018.8 hPa Calm     96 % 0.00 in /  0 mm
07:47 70.2 °F /  21.2 °C 69.0 °F /  20.6 °C 30.09 in /  1018.8 hPa Calm   2.3 mph /  3.7 km/h 96 % 0.00 in /  0 mm
07:52 70.3 °F /  21.3 °C 69.1 °F /  20.6 °C 30.09 in /  1018.8 hPa Calm     96 % 0.00 in /  0 mm
07:58 70.3 °F /  21.3 °C 69.1 °F /  20.6 °C 30.09 in /  1018.8 hPa Calm     96 % 0.00 in /  0 mm
08:03 70.3 °F /  21.3 °C 69.1 °F /  20.6 °C 30.09 in /  1018.8 hPa Calm     96 % 0.00 in /  0 mm
08:08 70.4 °F /  21.3 °C 69.2 °F /  20.7 °C 30.09 in /  1018.8 hPa Calm     96 % 0.00 in /  0 mm
08:18 70.4 °F /  21.3 °C 69.2 °F /  20.7 °C 30.09 in /  1018.8 hPa Calm     96 % 0.00 in /  0 mm
08:23 70.4 °F /  21.3 °C 69.2 °F /  20.7 °C 30.10 in /  1019.2 hPa Calm     96 % 0.00 in /  0 mm
08:28 70.5 °F /  21.4 °C 69.3 °F /  20.7 °C 30.10 in /  1019.2 hPa Calm     96 % 0.00 in /  0 mm
08:33 70.5 °F /  21.4 °C 69.3 °F /  20.7 °C 30.09 in /  1018.8 hPa Calm     96 % 0.00 in /  0 mm
08:43 70.6 °F /  21.4 °C 69.4 °F /  20.8 °C 30.10 in /  1019.2 hPa Calm     96 % 0.00 in /  0 mm
08:48 70.7 °F /  21.5 °C 69.5 °F /  20.8 °C 30.10 in /  1019.2 hPa Calm     96 % 0.00 in /  0 mm
08:53 70.8 °F /  21.6 °C 69.6 °F /  20.9 °C 30.10 in /  1019.2 hPa Calm     96 % 0.00 in /  0 mm
08:59 70.8 °F /  21.6 °C 69.6 °F /  20.9 °C 30.10 in /  1019.2 hPa Calm     96 % 0.00 in /  0 mm
09:04 71.0 °F /  21.7 °C 69.8 °F /  21 °C 30.11 in /  1019.5 hPa Calm     96 % 0.00 in /  0 mm
09:09 71.0 °F /  21.7 °C 69.8 °F /  21 °C 30.11 in /  1019.5 hPa Calm     96 % 0.00 in /  0 mm
09:14 71.1 °F /  21.7 °C 69.9 °F /  21.1 °C 30.11 in /  1019.5 hPa SE 0.3 mph /  0.5 km/h 1.2 mph /  1.9 km/h 96 % 0.00 in /  0 mm
09:19 71.2 °F /  21.8 °C 70.0 °F /  21.1 °C 30.11 in /  1019.5 hPa Calm   1.2 mph /  1.9 km/h 96 % 0.00 in /  0 mm
09:29 71.3 °F /  21.8 °C 69.8 °F /  21 °C 30.11 in /  1019.5 hPa NE 0.2 mph /  0.3 km/h 2.3 mph /  3.7 km/h 95 % 0.00 in /  0 mm
09:34 71.3 °F /  21.8 °C 69.8 °F /  21 °C 30.11 in /  1019.5 hPa Calm     95 % 0.00 in /  0 mm
09:39 71.4 °F /  21.9 °C 69.9 °F /  21.1 °C 30.11 in /  1019.5 hPa Calm     95 % 0.00 in /  0 mm
09:44 71.5 °F /  21.9 °C 70.0 °F /  21.1 °C 30.11 in /  1019.5 hPa Calm     95 % 0.00 in /  0 mm
09:49 71.5 °F /  21.9 °C 70.0 °F /  21.1 °C 30.11 in /  1019.5 hPa Calm     95 % 0.00 in /  0 mm
09:54 71.6 °F /  22 °C 70.1 °F /  21.2 °C 30.11 in /  1019.5 hPa NE 0.2 mph /  0.3 km/h 1.0 mph /  1.6 km/h 95 % 0.00 in /  0 mm
10:00 71.7 °F /  22.1 °C 69.9 °F /  21.1 °C 30.11 in /  1019.5 hPa Calm     94 % 0.00 in /  0 mm
10:05 71.9 °F /  22.2 °C 70.1 °F /  21.2 °C 30.11 in /  1019.5 hPa Calm   1.2 mph /  1.9 km/h 94 % 0.00 in /  0 mm
10:10 72.0 °F /  22.2 °C 70.2 °F /  21.2 °C 30.11 in /  1019.5 hPa Calm   1.0 mph /  1.6 km/h 94 % 0.00 in /  0 mm
10:15 72.1 °F /  22.3 °C 70.3 °F /  21.3 °C 30.11 in /  1019.5 hPa Calm   1.0 mph /  1.6 km/h 94 % 0.00 in /  0 mm
10:20 72.2 °F /  22.3 °C 70.4 °F /  21.3 °C 30.11 in /  1019.5 hPa ENE 0.1 mph /  0.2 km/h 1.2 mph /  1.9 km/h 94 % 0.00 in /  0 mm
10:25 72.3 °F /  22.4 °C 70.5 °F /  21.4 °C 30.11 in /  1019.5 hPa Calm   1.2 mph /  1.9 km/h 94 % 0.00 in /  0 mm
10:30 72.4 °F /  22.4 °C 70.3 °F /  21.3 °C 30.11 in /  1019.5 hPa ENE 0.1 mph /  0.2 km/h 1.2 mph /  1.9 km/h 93 % 0.00 in /  0 mm
10:35 72.5 °F /  22.5 °C 70.4 °F /  21.3 °C 30.11 in /  1019.5 hPa ENE 0.1 mph /  0.2 km/h 1.2 mph /  1.9 km/h 93 % 0.00 in /  0 mm
10:40 72.6 °F /  22.6 °C 70.1 °F /  21.2 °C 30.11 in /  1019.5 hPa Calm   1.2 mph /  1.9 km/h 92 % 0.00 in /  0 mm
10:45 72.6 °F /  22.6 °C 70.1 °F /  21.2 °C 30.11 in /  1019.5 hPa Calm   1.2 mph /  1.9 km/h 92 % 0.00 in /  0 mm
10:50 72.7 °F /  22.6 °C 70.2 °F /  21.2 °C 30.11 in /  1019.5 hPa Calm     92 % 0.00 in /  0 mm
10:55 72.8 °F /  22.7 °C 70.3 °F /  21.3 °C 30.11 in /  1019.5 hPa ENE 0.1 mph /  0.2 km/h 1.2 mph /  1.9 km/h 92 % 0.00 in /  0 mm
11:01 72.9 °F /  22.7 °C 70.4 °F /  21.3 °C 30.11 in /  1019.5 hPa Calm     92 % 0.00 in /  0 mm
11:06 73.0 °F /  22.8 °C 70.2 °F /  21.2 °C 30.11 in /  1019.5 hPa ENE 0.4 mph /  0.6 km/h 3.5 mph /  5.6 km/h 91 % 0.00 in /  0 mm
11:11 73.1 °F /  22.8 °C 70.3 °F /  21.3 °C 30.11 in /  1019.5 hPa ENE 0.1 mph /  0.2 km/h 2.3 mph /  3.7 km/h 91 % 0.00 in /  0 mm
11:16 73.2 °F /  22.9 °C 70.1 °F /  21.2 °C 30.11 in /  1019.5 hPa NE 1.1 mph /  1.8 km/h 3.5 mph /  5.6 km/h 90 % 0.00 in /  0 mm
11:21 73.3 °F /  22.9 °C 70.2 °F /  21.2 °C 30.11 in /  1019.5 hPa North 1.0 mph /  1.6 km/h 2.3 mph /  3.7 km/h 90 % 0.00 in /  0 mm
11:26 73.4 °F /  23 °C 70.3 °F /  21.3 °C 30.11 in /  1019.5 hPa NE 0.2 mph /  0.3 km/h 2.3 mph /  3.7 km/h 90 % 0.00 in /  0 mm
11:31 73.5 °F /  23.1 °C 70.4 °F /  21.3 °C 30.11 in /  1019.5 hPa North 1.7 mph /  2.7 km/h 3.5 mph /  5.6 km/h 90 % 0.00 in /  0 mm
11:36 73.7 °F /  23.2 °C 70.6 °F /  21.4 °C 30.11 in /  1019.5 hPa NNE 2.9 mph /  4.7 km/h 4.6 mph /  7.4 km/h 90 % 0.00 in /  0 mm
11:41 73.9 °F /  23.3 °C 70.5 °F /  21.4 °C 30.11 in /  1019.5 hPa ENE 3.6 mph /  5.8 km/h 5.0 mph /  8 km/h 89 % 0.00 in /  0 mm
11:46 74.0 °F /  23.3 °C 70.2 °F /  21.2 °C 30.11 in /  1019.5 hPa ENE 0.7 mph /  1.1 km/h 3.5 mph /  5.6 km/h 88 % 0.00 in /  0 mm
11:51 74.1 °F /  23.4 °C 70.3 °F /  21.3 °C 30.11 in /  1019.5 hPa ENE 0.8 mph /  1.3 km/h 5.0 mph /  8 km/h 88 % 0.00 in /  0 mm
11:56 74.2 °F /  23.4 °C 70.4 °F /  21.3 °C 30.11 in /  1019.5 hPa NNE 1.1 mph /  1.8 km/h 3.5 mph /  5.6 km/h 88 % 0.00 in /  0 mm
12:02 74.3 °F /  23.5 °C 70.2 °F /  21.2 °C 30.11 in /  1019.5 hPa ENE 2.8 mph /  4.5 km/h 4.6 mph /  7.4 km/h 87 % 0.00 in /  0 mm
12:07 74.5 °F /  23.6 °C 71.0 °F /  21.7 °C 30.11 in /  1019.5 hPa ENE 0.1 mph /  0.2 km/h 1.2 mph /  1.9 km/h 89 % 0.00 in /  0 mm
12:12 74.8 °F /  23.8 °C 71.0 °F /  21.7 °C 30.10 in /  1019.2 hPa NE 1.7 mph /  2.7 km/h 3.5 mph /  5.6 km/h 88 % 0.00 in /  0 mm
12:17 75.0 °F /  23.9 °C 70.9 °F /  21.6 °C 30.10 in /  1019.2 hPa ENE 1.7 mph /  2.7 km/h 3.5 mph /  5.6 km/h 87 % 0.00 in /  0 mm
12:22 75.3 °F /  24.1 °C 71.2 °F /  21.8 °C 30.10 in /  1019.2 hPa NNE 2.3 mph /  3.7 km/h 5.0 mph /  8 km/h 87 % 0.00 in /  0 mm
12:27 75.5 °F /  24.2 °C 71.4 °F /  21.9 °C 30.10 in /  1019.2 hPa NNE 3.3 mph /  5.3 km/h 7.0 mph /  11.3 km/h 87 % 0.00 in /  0 mm
12:32 75.6 °F /  24.2 °C 71.1 °F /  21.7 °C 30.10 in /  1019.2 hPa ENE 1.4 mph /  2.3 km/h 5.0 mph /  8 km/h 86 % 0.00 in /  0 mm
12:37 75.7 °F /  24.3 °C 70.9 °F /  21.6 °C 30.10 in /  1019.2 hPa NNE 2.9 mph /  4.7 km/h 4.6 mph /  7.4 km/h 85 % 0.00 in /  0 mm
12:42 75.8 °F /  24.3 °C 71.0 °F /  21.7 °C 30.10 in /  1019.2 hPa NNE 2.3 mph /  3.7 km/h 3.5 mph /  5.6 km/h 85 % 0.00 in /  0 mm
12:47 76.0 °F /  24.4 °C 71.2 °F /  21.8 °C 30.11 in /  1019.5 hPa NE 2.5 mph /  4 km/h 3.5 mph /  5.6 km/h 85 % 0.00 in /  0 mm
12:52 76.1 °F /  24.5 °C 70.9 °F /  21.6 °C 30.10 in /  1019.2 hPa NNE 3.0 mph /  4.8 km/h 4.6 mph /  7.4 km/h 84 % 0.00 in /  0 mm
12:57 76.2 °F /  24.6 °C 71.0 °F /  21.7 °C 30.11 in /  1019.5 hPa NE 0.9 mph /  1.4 km/h 2.3 mph /  3.7 km/h 84 % 0.00 in /  0 mm
13:02 76.6 °F /  24.8 °C 71.7 °F /  22.1 °C 30.10 in /  1019.2 hPa North 2.7 mph /  4.3 km/h 5.0 mph /  8 km/h 85 % 0.00 in /  0 mm
13:08 76.9 °F /  24.9 °C 71.3 °F /  21.8 °C 30.10 in /  1019.2 hPa North 3.7 mph /  6 km/h 5.8 mph /  9.3 km/h 83 % 0.00 in /  0 mm
13:13 77.5 °F /  25.3 °C 71.9 °F /  22.2 °C 30.10 in /  1019.2 hPa NE 0.8 mph /  1.3 km/h 4.6 mph /  7.4 km/h 83 % 0.00 in /  0 mm
13:23 78.1 °F /  25.6 °C 71.4 °F /  21.9 °C 30.10 in /  1019.2 hPa NE 2.4 mph /  3.9 km/h 5.8 mph /  9.3 km/h 80 % 0.00 in /  0 mm
13:28 78.3 °F /  25.7 °C 71.2 °F /  21.8 °C 30.09 in /  1018.8 hPa NE 1.6 mph /  2.6 km/h 3.5 mph /  5.6 km/h 79 % 0.00 in /  0 mm
13:33 78.5 °F /  25.8 °C 71.8 °F /  22.1 °C 30.09 in /  1018.8 hPa NE 3.9 mph /  6.3 km/h 4.6 mph /  7.4 km/h 80 % 0.00 in /  0 mm
13:38 78.6 °F /  25.9 °C 71.9 °F /  22.2 °C 30.09 in /  1018.8 hPa NNE 2.1 mph /  3.4 km/h 3.5 mph /  5.6 km/h 80 % 0.00 in /  0 mm
13:48 78.9 °F /  26.1 °C 71.8 °F /  22.1 °C 30.09 in /  1018.8 hPa NE 0.6 mph /  1 km/h 3.5 mph /  5.6 km/h 79 % 0.00 in /  0 mm
13:53 78.7 °F /  25.9 °C 71.3 °F /  21.8 °C 30.09 in /  1018.8 hPa ENE 3.1 mph /  5 km/h 5.8 mph /  9.3 km/h 78 % 0.00 in /  0 mm
13:58 78.8 °F /  26 °C 71.7 °F /  22.1 °C 30.09 in /  1018.8 hPa ENE 2.2 mph /  3.5 km/h 7.0 mph /  11.3 km/h 79 % 0.00 in /  0 mm
14:03 78.8 °F /  26 °C 71.4 °F /  21.9 °C 30.09 in /  1018.8 hPa ENE 0.9 mph /  1.4 km/h 3.5 mph /  5.6 km/h 78 % 0.00 in /  0 mm
14:09 78.8 °F /  26 °C 71.4 °F /  21.9 °C 30.08 in /  1018.5 hPa ENE 0.2 mph /  0.3 km/h 2.3 mph /  3.7 km/h 78 % 0.00 in /  0 mm
14:14 78.6 °F /  25.9 °C 71.2 °F /  21.8 °C 30.08 in /  1018.5 hPa NE 0.2 mph /  0.3 km/h 2.3 mph /  3.7 km/h 78 % 0.00 in /  0 mm
14:19 78.2 °F /  25.7 °C 70.8 °F /  21.6 °C 30.08 in /  1018.5 hPa ENE 1.3 mph /  2.1 km/h 3.5 mph /  5.6 km/h 78 % 0.00 in /  0 mm
14:24 77.8 °F /  25.4 °C 70.8 °F /  21.6 °C 30.08 in /  1018.5 hPa NE 2.1 mph /  3.4 km/h 3.5 mph /  5.6 km/h 79 % 0.00 in /  0 mm
14:29 77.6 °F /  25.3 °C 70.9 °F /  21.6 °C 30.08 in /  1018.5 hPa ENE 0.3 mph /  0.5 km/h 2.0 mph /  3.2 km/h 80 % 0.00 in /  0 mm
14:34 77.3 °F /  25.2 °C 70.6 °F /  21.4 °C 30.08 in /  1018.5 hPa Calm   2.3 mph /  3.7 km/h 80 % 0.00 in /  0 mm
14:39 77.0 °F /  25 °C 70.4 °F /  21.3 °C 30.08 in /  1018.5 hPa ENE 0.5 mph /  0.8 km/h 2.3 mph /  3.7 km/h 80 % 0.00 in /  0 mm
14:44 76.5 °F /  24.7 °C 70.2 °F /  21.2 °C 30.08 in /  1018.5 hPa NE 0.4 mph /  0.6 km/h 3.5 mph /  5.6 km/h 81 % 0.00 in /  0 mm
14:49 76.2 °F /  24.6 °C 70.3 °F /  21.3 °C 30.08 in /  1018.5 hPa ENE 0.7 mph /  1.1 km/h 2.0 mph /  3.2 km/h 82 % 0.00 in /  0 mm
14:54 76.0 °F /  24.4 °C 70.5 °F /  21.4 °C 30.08 in /  1018.5 hPa Calm     83 % 0.00 in /  0 mm
14:59 75.9 °F /  24.4 °C 70.4 °F /  21.3 °C 30.08 in /  1018.5 hPa Calm     83 % 0.00 in /  0 mm
15:04 75.8 °F /  24.3 °C 70.3 °F /  21.3 °C 30.08 in /  1018.5 hPa ENE 0.1 mph /  0.2 km/h 2.3 mph /  3.7 km/h 83 % 0.00 in /  0 mm
15:10 75.8 °F /  24.3 °C 70.6 °F /  21.4 °C 30.07 in /  1018.2 hPa ENE 0.2 mph /  0.3 km/h 1.2 mph /  1.9 km/h 84 % 0.00 in /  0 mm
15:15 75.8 °F /  24.3 °C 70.6 °F /  21.4 °C 30.07 in /  1018.2 hPa ENE 0.2 mph /  0.3 km/h 1.2 mph /  1.9 km/h 84 % 0.00 in /  0 mm
15:20 75.9 °F /  24.4 °C 70.7 °F /  21.5 °C 30.08 in /  1018.5 hPa NE 0.3 mph /  0.5 km/h 1.2 mph /  1.9 km/h 84 % 0.00 in /  0 mm
15:25 75.8 °F /  24.3 °C 70.3 °F /  21.3 °C 30.07 in /  1018.2 hPa NE 0.3 mph /  0.5 km/h 1.2 mph /  1.9 km/h 83 % 0.00 in /  0 mm
15:30 75.8 °F /  24.3 °C 70.6 °F /  21.4 °C 30.07 in /  1018.2 hPa NE 0.2 mph /  0.3 km/h 1.2 mph /  1.9 km/h 84 % 0.00 in /  0 mm
15:35 75.9 °F /  24.4 °C 70.7 °F /  21.5 °C 30.07 in /  1018.2 hPa Calm     84 % 0.00 in /  0 mm
15:40 76.0 °F /  24.4 °C 70.8 °F /  21.6 °C 30.07 in /  1018.2 hPa NE 0.3 mph /  0.5 km/h 1.2 mph /  1.9 km/h 84 % 0.00 in /  0 mm
15:45 76.0 °F /  24.4 °C 70.8 °F /  21.6 °C 30.07 in /  1018.2 hPa NE 0.1 mph /  0.2 km/h 1.2 mph /  1.9 km/h 84 % 0.00 in /  0 mm
15:55 76.3 °F /  24.6 °C 71.1 °F /  21.7 °C 30.08 in /  1018.5 hPa NE 0.1 mph /  0.2 km/h 1.2 mph /  1.9 km/h 84 % 0.00 in /  0 mm
16:00 76.6 °F /  24.8 °C 71.0 °F /  21.7 °C 30.08 in /  1018.5 hPa NE 0.2 mph /  0.3 km/h 1.2 mph /  1.9 km/h 83 % 0.00 in /  0 mm
16:05 77.0 °F /  25 °C 71.8 °F /  22.1 °C 30.08 in /  1018.5 hPa NE 0.1 mph /  0.2 km/h 1.2 mph /  1.9 km/h 84 % 0.00 in /  0 mm
16:10 77.4 °F /  25.2 °C 71.8 °F /  22.1 °C 30.08 in /  1018.5 hPa NE 0.2 mph /  0.3 km/h 1.2 mph /  1.9 km/h 83 % 0.00 in /  0 mm
16:16 77.6 °F /  25.3 °C 71.3 °F /  21.8 °C 30.08 in /  1018.5 hPa NE 0.2 mph /  0.3 km/h 2.3 mph /  3.7 km/h 81 % 0.00 in /  0 mm
16:21 77.6 °F /  25.3 °C 71.3 °F /  21.8 °C 30.08 in /  1018.5 hPa Calm   1.0 mph /  1.6 km/h 81 % 0.00 in /  0 mm
16:26 77.6 °F /  25.3 °C 70.9 °F /  21.6 °C 30.07 in /  1018.2 hPa Calm   1.0 mph /  1.6 km/h 80 % 0.00 in /  0 mm
16:31 77.5 °F /  25.3 °C 71.2 °F /  21.8 °C 30.07 in /  1018.2 hPa Calm     81 % 0.00 in /  0 mm
16:36 77.5 °F /  25.3 °C 71.2 °F /  21.8 °C 30.07 in /  1018.2 hPa Calm   1.2 mph /  1.9 km/h 81 % 0.00 in /  0 mm
16:41 77.5 °F /  25.3 °C 71.2 °F /  21.8 °C 30.07 in /  1018.2 hPa Calm     81 % 0.00 in /  0 mm
16:46 77.3 °F /  25.2 °C 71.4 °F /  21.9 °C 30.07 in /  1018.2 hPa Calm   1.2 mph /  1.9 km/h 82 % 0.00 in /  0 mm
16:51 77.2 °F /  25.1 °C 71.3 °F /  21.8 °C 30.07 in /  1018.2 hPa Calm     82 % 0.00 in /  0 mm
16:56 77.1 °F /  25.1 °C 71.5 °F /  21.9 °C 30.07 in /  1018.2 hPa Calm     83 % 0.00 in /  0 mm
17:01 77.0 °F /  25 °C 71.4 °F /  21.9 °C 30.07 in /  1018.2 hPa Calm     83 % 0.00 in /  0 mm
17:06 77.0 °F /  25 °C 71.4 °F /  21.9 °C 30.07 in /  1018.2 hPa ENE 0.3 mph /  0.5 km/h 2.3 mph /  3.7 km/h 83 % 0.00 in /  0 mm
17:12 77.1 °F /  25.1 °C 71.2 °F /  21.8 °C 30.07 in /  1018.2 hPa Calm   3.5 mph /  5.6 km/h 82 % 0.00 in /  0 mm
17:22 77.1 °F /  25.1 °C 71.5 °F /  21.9 °C 30.07 in /  1018.2 hPa SSE 0.9 mph /  1.4 km/h 2.3 mph /  3.7 km/h 83 % 0.00 in /  0 mm
17:27 77.0 °F /  25 °C 71.4 °F /  21.9 °C 30.07 in /  1018.2 hPa SE 2.0 mph /  3.2 km/h 4.0 mph /  6.4 km/h 83 % 0.00 in /  0 mm
17:32 77.0 °F /  25 °C 71.4 °F /  21.9 °C 30.06 in /  1017.8 hPa Calm     83 % 0.00 in /  0 mm
17:37 77.0 °F /  25 °C 71.8 °F /  22.1 °C 30.07 in /  1018.2 hPa SE 0.4 mph /  0.6 km/h 1.2 mph /  1.9 km/h 84 % 0.00 in /  0 mm
17:42 77.0 °F /  25 °C 71.8 °F /  22.1 °C 30.07 in /  1018.2 hPa Calm   1.2 mph /  1.9 km/h 84 % 0.00 in /  0 mm
17:47 76.9 °F /  24.9 °C 71.7 °F /  22.1 °C 30.07 in /  1018.2 hPa SSE 0.7 mph /  1.1 km/h 4.6 mph /  7.4 km/h 84 % 0.00 in /  0 mm
17:52 76.9 °F /  24.9 °C 71.3 °F /  21.8 °C 30.07 in /  1018.2 hPa SSE 0.6 mph /  1 km/h 3.5 mph /  5.6 km/h 83 % 0.00 in /  0 mm
17:57 76.9 °F /  24.9 °C 71.3 °F /  21.8 °C 30.07 in /  1018.2 hPa SE 2.3 mph /  3.7 km/h 3.5 mph /  5.6 km/h 83 % 0.00 in /  0 mm
18:02 76.7 °F /  24.8 °C 70.8 °F /  21.6 °C 30.07 in /  1018.2 hPa SSE 1.4 mph /  2.3 km/h 4.6 mph /  7.4 km/h 82 % 0.00 in /  0 mm
18:07 76.5 °F /  24.7 °C 70.6 °F /  21.4 °C 30.07 in /  1018.2 hPa SE 0.6 mph /  1 km/h 2.3 mph /  3.7 km/h 82 % 0.00 in /  0 mm
18:13 76.3 °F /  24.6 °C 70.4 °F /  21.3 °C 30.07 in /  1018.2 hPa SE 0.4 mph /  0.6 km/h 2.3 mph /  3.7 km/h 82 % 0.00 in /  0 mm
18:18 76.2 °F /  24.6 °C 70.3 °F /  21.3 °C 30.07 in /  1018.2 hPa Calm   1.2 mph /  1.9 km/h 82 % 0.00 in /  0 mm
18:23 76.1 °F /  24.5 °C 70.6 °F /  21.4 °C 30.07 in /  1018.2 hPa Calm     83 % 0.00 in /  0 mm
18:28 75.9 °F /  24.4 °C 70.4 °F /  21.3 °C 30.07 in /  1018.2 hPa SE 0.1 mph /  0.2 km/h 1.2 mph /  1.9 km/h 83 % 0.00 in /  0 mm
18:33 75.7 °F /  24.3 °C 69.8 °F /  21 °C 30.07 in /  1018.2 hPa SE 0.2 mph /  0.3 km/h 2.3 mph /  3.7 km/h 82 % 0.00 in /  0 mm
18:38 75.5 °F /  24.2 °C 69.6 °F /  20.9 °C 30.07 in /  1018.2 hPa SE 0.1 mph /  0.2 km/h 2.3 mph /  3.7 km/h 82 % 0.00 in /  0 mm
18:43 75.2 °F /  24 °C 69.3 °F /  20.7 °C 30.08 in /  1018.5 hPa Calm     82 % 0.00 in /  0 mm
18:48 74.9 °F /  23.8 °C 69.4 °F /  20.8 °C 30.08 in /  1018.5 hPa Calm     83 % 0.00 in /  0 mm
18:53 74.8 °F /  23.8 °C 69.3 °F /  20.7 °C 30.08 in /  1018.5 hPa Calm     83 % 0.00 in /  0 mm
18:58 74.6 °F /  23.7 °C 69.1 °F /  20.6 °C 30.08 in /  1018.5 hPa Calm   1.0 mph /  1.6 km/h 83 % 0.00 in /  0 mm
19:03 74.4 °F /  23.6 °C 68.9 °F /  20.5 °C 30.08 in /  1018.5 hPa Calm     83 % 0.00 in /  0 mm
19:08 74.1 °F /  23.4 °C 69.0 °F /  20.6 °C 30.08 in /  1018.5 hPa Calm     84 % 0.00 in /  0 mm
19:13 73.9 °F /  23.3 °C 68.8 °F /  20.4 °C 30.08 in /  1018.5 hPa Calm     84 % 0.00 in /  0 mm
19:19 73.6 °F /  23.1 °C 68.5 °F /  20.3 °C 30.08 in /  1018.5 hPa Calm     84 % 0.00 in /  0 mm
19:24 73.4 °F /  23 °C 68.6 °F /  20.3 °C 30.08 in /  1018.5 hPa Calm     85 % 0.00 in /  0 mm
19:29 73.2 °F /  22.9 °C 68.4 °F /  20.2 °C 30.08 in /  1018.5 hPa Calm     85 % 0.00 in /  0 mm
19:34 72.9 °F /  22.7 °C 68.5 °F /  20.3 °C 30.08 in /  1018.5 hPa Calm     86 % 0.00 in /  0 mm
19:39 72.7 °F /  22.6 °C 68.3 °F /  20.2 °C 30.08 in /  1018.5 hPa Calm     86 % 0.00 in /  0 mm
19:44 72.5 °F /  22.5 °C 68.1 °F /  20.1 °C 30.08 in /  1018.5 hPa Calm     86 % 0.00 in /  0 mm
19:45 72.4 °F /  22.4 °C 68.3 °F /  20.2 °C 30.08 in /  1018.5 hPa Calm     87 % 0.00 in /  0 mm
19:50 72.2 °F /  22.3 °C 68.1 °F /  20.1 °C 30.09 in /  1018.8 hPa Calm     87 % 0.00 in /  0 mm
19:56 71.9 °F /  22.2 °C 67.8 °F /  19.9 °C 30.08 in /  1018.5 hPa Calm     87 % 0.00 in /  0 mm
20:01 71.7 °F /  22.1 °C 68.0 °F /  20 °C 30.08 in /  1018.5 hPa Calm     88 % 0.00 in /  0 mm
20:06 71.5 °F /  21.9 °C 67.8 °F /  19.9 °C 30.09 in /  1018.8 hPa Calm     88 % 0.00 in /  0 mm
20:11 71.3 °F /  21.8 °C 67.6 °F /  19.8 °C 30.09 in /  1018.8 hPa Calm     88 % 0.00 in /  0 mm
20:16 71.1 °F /  21.7 °C 67.7 °F /  19.8 °C 30.09 in /  1018.8 hPa Calm     89 % 0.00 in /  0 mm
20:21 70.9 °F /  21.6 °C 67.5 °F /  19.7 °C 30.09 in /  1018.8 hPa Calm     89 % 0.00 in /  0 mm
20:26 70.7 °F /  21.5 °C 67.3 °F /  19.6 °C 30.09 in /  1018.8 hPa Calm     89 % 0.00 in /  0 mm
20:31 70.6 °F /  21.4 °C 67.2 °F /  19.6 °C 30.09 in /  1018.8 hPa Calm     89 % 0.00 in /  0 mm
20:36 70.4 °F /  21.3 °C 67.3 °F /  19.6 °C 30.08 in /  1018.5 hPa Calm     90 % 0.00 in /  0 mm
20:41 70.3 °F /  21.3 °C 67.2 °F /  19.6 °C 30.08 in /  1018.5 hPa Calm     90 % 0.00 in /  0 mm
20:46 70.1 °F /  21.2 °C 67.0 °F /  19.4 °C 30.08 in /  1018.5 hPa Calm   1.2 mph /  1.9 km/h 90 % 0.00 in /  0 mm
20:51 70.0 °F /  21.1 °C 66.9 °F /  19.4 °C 30.08 in /  1018.5 hPa Calm     90 % 0.00 in /  0 mm
20:57 69.9 °F /  21.1 °C 66.8 °F /  19.3 °C 30.08 in /  1018.5 hPa Calm     90 % 0.00 in /  0 mm
21:02 69.7 °F /  20.9 °C 66.6 °F /  19.2 °C 30.08 in /  1018.5 hPa Calm     90 % 0.00 in /  0 mm
21:07 69.6 °F /  20.9 °C 66.5 °F /  19.2 °C 30.08 in /  1018.5 hPa Calm     90 % 0.00 in /  0 mm
21:12 69.5 °F /  20.8 °C 66.8 °F /  19.3 °C 30.07 in /  1018.2 hPa Calm     91 % 0.00 in /  0 mm
21:17 69.4 °F /  20.8 °C 66.7 °F /  19.3 °C 30.07 in /  1018.2 hPa Calm     91 % 0.00 in /  0 mm
21:22 69.2 °F /  20.7 °C 66.5 °F /  19.2 °C 30.07 in /  1018.2 hPa Calm     91 % 0.00 in /  0 mm
21:27 69.1 °F /  20.6 °C 66.4 °F /  19.1 °C 30.08 in /  1018.5 hPa Calm     91 % 0.00 in /  0 mm
21:28 69.0 °F /  20.6 °C 66.3 °F /  19.1 °C 30.08 in /  1018.5 hPa Calm     91 % 0.00 in /  0 mm
21:33 68.9 °F /  20.5 °C 66.2 °F /  19 °C 30.08 in /  1018.5 hPa Calm     91 % 0.00 in /  0 mm
21:34 68.9 °F /  20.5 °C 66.2 °F /  19 °C 30.08 in /  1018.5 hPa Calm     91 % 0.00 in /  0 mm
21:39 68.8 °F /  20.4 °C 66.1 °F /  18.9 °C 30.08 in /  1018.5 hPa Calm     91 % 0.00 in /  0 mm
21:44 68.7 °F /  20.4 °C 66.0 °F /  18.9 °C 30.08 in /  1018.5 hPa Calm     91 % 0.00 in /  0 mm
21:49 68.6 °F /  20.3 °C 65.9 °F /  18.8 °C 30.08 in /  1018.5 hPa Calm     91 % 0.00 in /  0 mm
21:54 68.5 °F /  20.3 °C 65.8 °F /  18.8 °C 30.08 in /  1018.5 hPa Calm     91 % 0.00 in /  0 mm
21:59 68.4 °F /  20.2 °C 65.7 °F /  18.7 °C 30.08 in /  1018.5 hPa Calm     91 % 0.00 in /  0 mm
22:04 68.3 °F /  20.2 °C 65.6 °F /  18.7 °C 30.08 in /  1018.5 hPa Calm     91 % 0.00 in /  0 mm
22:09 68.2 °F /  20.1 °C 65.5 °F /  18.6 °C 30.08 in /  1018.5 hPa Calm     91 % 0.00 in /  0 mm
22:14 68.1 °F /  20.1 °C 65.4 °F /  18.6 °C 30.08 in /  1018.5 hPa SSW 0.2 mph /  0.3 km/h 1.2 mph /  1.9 km/h 91 % 0.00 in /  0 mm
22:19 68.1 °F /  20.1 °C 65.4 °F /  18.6 °C 30.08 in /  1018.5 hPa Calm     91 % 0.00 in /  0 mm
22:24 68.0 °F /  20 °C 65.6 °F /  18.7 °C 30.09 in /  1018.8 hPa Calm     92 % 0.00 in /  0 mm
22:29 67.9 °F /  19.9 °C 65.5 °F /  18.6 °C 30.08 in /  1018.5 hPa Calm     92 % 0.00 in /  0 mm
22:34 67.8 °F /  19.9 °C 65.4 °F /  18.6 °C 30.08 in /  1018.5 hPa Calm     92 % 0.00 in /  0 mm
22:39 67.8 °F /  19.9 °C 65.4 °F /  18.6 °C 30.08 in /  1018.5 hPa Calm     92 % 0.00 in /  0 mm
22:45 67.7 °F /  19.8 °C 65.3 °F /  18.5 °C 30.09 in /  1018.8 hPa Calm     92 % 0.00 in /  0 mm
22:50 67.6 °F /  19.8 °C 65.2 °F /  18.4 °C 30.09 in /  1018.8 hPa Calm     92 % 0.00 in /  0 mm
22:55 67.5 °F /  19.7 °C 65.1 °F /  18.4 °C 30.09 in /  1018.8 hPa Calm     92 % 0.00 in /  0 mm
23:00 67.4 °F /  19.7 °C 65.0 °F /  18.3 °C 30.09 in /  1018.8 hPa Calm     92 % 0.00 in /  0 mm
23:05 67.4 °F /  19.7 °C 65.0 °F /  18.3 °C 30.09 in /  1018.8 hPa Calm     92 % 0.00 in /  0 mm
23:11 67.2 °F /  19.6 °C 64.8 °F /  18.2 °C 30.09 in /  1018.8 hPa Calm     92 % 0.00 in /  0 mm
23:16 67.2 °F /  19.6 °C 64.8 °F /  18.2 °C 30.09 in /  1018.8 hPa Calm     92 % 0.00 in /  0 mm
23:20 67.1 °F /  19.5 °C 64.7 °F /  18.2 °C 30.09 in /  1018.8 hPa Calm     92 % 0.00 in /  0 mm
23:22 67.1 °F /  19.5 °C 64.7 °F /  18.2 °C 30.09 in /  1018.8 hPa Calm     92 % 0.00 in /  0 mm
23:23 67.1 °F /  19.5 °C 64.7 °F /  18.2 °C 30.09 in /  1018.8 hPa Calm     92 % 0.00 in /  0 mm
23:25 67.1 °F /  19.5 °C 64.7 °F /  18.2 °C 30.09 in /  1018.8 hPa Calm     92 % 0.00 in /  0 mm
23:26 67.1 °F /  19.5 °C 64.7 °F /  18.2 °C 30.09 in /  1018.8 hPa Calm     92 % 0.00 in /  0 mm
23:31 67.0 °F /  19.4 °C 64.9 °F /  18.3 °C 30.09 in /  1018.8 hPa Calm     93 % 0.00 in /  0 mm
23:36 67.0 °F /  19.4 °C 64.9 °F /  18.3 °C 30.09 in /  1018.8 hPa Calm     93 % 0.00 in /  0 mm
23:41 66.9 °F /  19.4 °C 64.8 °F /  18.2 °C 30.09 in /  1018.8 hPa Calm     93 % 0.00 in /  0 mm
23:46 66.8 °F /  19.3 °C 64.7 °F /  18.2 °C 30.09 in /  1018.8 hPa Calm     93 % 0.00 in /  0 mm
23:51 66.8 °F /  19.3 °C 64.7 °F /  18.2 °C 30.09 in /  1018.8 hPa Calm     93 % 0.00 in /  0 mm
23:56 66.7 °F /  19.3 °C 64.6 °F /  18.1 °C 30.09 in /  1018.8 hPa Calm     93 % 0.00 in /  0 mm
Crab Meadow Weather
Compliments of Weather Underground - 3 mb

Script developed by  Jim McMurry - jmcmurry@mwt.net Adapted for the template by  Wim van der Kuil - Leuven-Template.eu

Hurricanes: In one day a hurricane can release enough energy to supply all of the nation's electrical needs for about six months.